Iberica Hav — C6YI3 — position and weather

sailwx.info

Track history (hours):
 
Tides and Currents Weather Stations Pressure Air Temp Water Temp Dewpoint Dewpoint Depression Visibility Wind Speed Wind Dir Waves Ship Positions

Iberica Hav

Last reported at 2016-Jun-30 11:33 UTC. Time now 2016-Jun-30 12:26 UTC.
Position N 51°58' E 004°09'.

Length 88 m; draft 3.8 m.

Type: Cargo ship. MMSI: 311034400.

Date/timePositionNaut miles runAvg speedWind from/ knotsBaromVisibWave heightAir tempDewpointWater temp
2016-Jun-30 11:33N 51°58' E 004°09'8 8.2
2016-Jun-30 10:33N 51°53' E 004°20'7 6.5
2016-Jun-30 09:33N 51°50' E 004°29'8 7.5
2016-Jun-30 08:33N 51°45' E 004°38'3 3.2
2016-Jun-30 07:31N 51°42' E 004°37'0 0.0
2016-Jun-30 04:31N 51°42' E 004°37'0 0.0
2016-Jun-30 03:31N 51°42' E 004°37'0 0.0
2016-Jun-30 02:31N 51°42' E 004°37'0 0.0
2016-Jun-30 01:31N 51°42' E 004°37'0 0.0
2016-Jun-30 00:31N 51°42' E 004°37'0 0.0
2016-Jun-29 23:31N 51°42' E 004°37'0 0.0
2016-Jun-29 22:31N 51°42' E 004°37'0 0.0
2016-Jun-29 21:31N 51°42' E 004°37'0 0.0
2016-Jun-29 20:31N 51°42' E 004°37'0 0.0
2016-Jun-29 19:31N 51°42' E 004°37'0 0.0
2016-Jun-29 18:31N 51°42' E 004°37'0 0.0
2016-Jun-29 17:31N 51°42' E 004°37'0 0.0
2016-Jun-29 16:31N 51°42' E 004°37'0 0.0
2016-Jun-29 15:28N 51°42' E 004°37'0 0.0
2016-Jun-29 14:31N 51°42' E 004°37'0 0.0
2016-Jun-29 13:31N 51°42' E 004°37'0 0.0
2016-Jun-29 12:16N 51°42' E 004°37'0 0.0
2016-Jun-29 11:31N 51°42' E 004°37'7 7.0
2016-Jun-29 10:33N 51°48' E 004°36'1110.5
2016-Jun-29 09:33N 51°52' E 004°20'1111.3
2016-Jun-29 08:34N 51°59' E 004°05'9 9.3
2016-Jun-29 07:33N 52°01' E 003°51'94 7.8
2016-Jun-28 19:28N 52°50' E 001°38'6 6.3
2016-Jun-28 18:33N 52°53' E 001°30'6 6.1
2016-Jun-28 17:33N 52°57' E 001°22'9 6.8
2016-Jun-28 16:16N 53°01' E 001°09'6 7.9
2016-Jun-28 15:32N 53°04' E 001°01'9 9.2
2016-Jun-28 14:32N 53°08' E 000°47'8 8.6
2016-Jun-28 13:33N 53°07' E 000°33'1010.0
2016-Jun-28 12:33N 52°60' E 000°21'9 9.3
2016-Jun-28 11:33N 52°56' E 000°06'5 4.5
2016-Jun-28 10:28N 52°58' W 000°01'0 0.0
2016-Jun-28 09:31N 52°58' W 000°01'0 0.0
2016-Jun-28 08:28N 52°58' W 000°01'0 0.0
2016-Jun-28 07:31N 52°58' W 000°01'0 0.0
2016-Jun-28 06:28N 52°58' W 000°01'0 0.0
2016-Jun-28 04:25N 52°58' W 000°01'0 0.0
2016-Jun-28 03:31N 52°58' W 000°01'0 0.0
2016-Jun-28 02:31N 52°58' W 000°01'0 0.0
2016-Jun-28 01:28N 52°58' W 000°01'0 0.0
2016-Jun-28 00:25N 52°58' W 000°01'0 0.0
2016-Jun-27 23:25N 52°58' W 000°01'0 0.0
2016-Jun-27 22:28N 52°58' W 000°01'0 0.0
2016-Jun-27 21:13N 52°58' W 000°01'0 0.0
2016-Jun-27 20:16N 52°58' W 000°01'0 0.0
2016-Jun-27 19:31N 52°58' W 000°01'0 0.0
2016-Jun-27 18:31N 52°58' W 000°01'0 0.0
2016-Jun-27 17:31N 52°58' W 000°01'0 0.0
2016-Jun-27 16:28N 52°58' W 000°01'0 0.0
2016-Jun-27 15:31N 52°58' W 000°01'0 0.0
2016-Jun-27 14:31N 52°58' W 000°01'0 0.0
2016-Jun-27 13:22N 52°58' W 000°01'0 0.0
2016-Jun-27 12:28N 52°58' W 000°01'0 0.0
2016-Jun-27 11:28N 52°58' W 000°01'0 0.0
2016-Jun-27 10:31N 52°58' W 000°01'0 0.0
2016-Jun-27 09:31N 52°58' W 000°01'0 0.0
2016-Jun-27 08:31N 52°58' W 000°01'0 0.0
2016-Jun-27 06:31N 52°58' W 000°01'0 0.0
2016-Jun-27 05:31N 52°58' W 000°01'0 0.0
2016-Jun-27 04:28N 52°58' W 000°01'0 0.0
2016-Jun-27 03:31N 52°58' W 000°01'0 0.0
2016-Jun-27 02:28N 52°58' W 000°01'0 0.0
2016-Jun-27 01:31N 52°58' W 000°01'0 0.0
2016-Jun-27 00:28N 52°58' W 000°01'0 0.0
2016-Jun-26 23:28N 52°58' W 000°01'0 0.0
2016-Jun-26 22:25N 52°58' W 000°01'0 0.0
2016-Jun-26 21:31N 52°58' W 000°01'0 0.0
2016-Jun-26 20:31N 52°58' W 000°01'0 0.0
2016-Jun-26 19:28N 52°58' W 000°01'0 0.0
2016-Jun-26 18:28N 52°58' W 000°01'0 0.0
2016-Jun-26 17:25N 52°58' W 000°01'0 0.0
2016-Jun-26 16:31N 52°58' W 000°01'0 0.0
2016-Jun-26 15:31N 52°58' W 000°01'0 0.0
2016-Jun-26 14:28N 52°58' W 000°01'0 0.0
2016-Jun-26 13:28N 52°58' W 000°01'0 0.0
2016-Jun-26 12:28N 52°58' W 000°01'0 0.0
2016-Jun-26 11:25N 52°58' W 000°01'0 0.0
2016-Jun-26 10:28N 52°58' W 000°01'0 0.1
2016-Jun-26 09:33N 52°58' W 000°01'4 4.4
2016-Jun-26 08:33N 52°56' E 000°05'7 7.0
2016-Jun-26 07:33N 52°58' E 000°17'0 0.2
2016-Jun-26 06:33N 52°58' E 000°17'0 0.0
2016-Jun-26 05:33N 52°58' E 000°17'0 0.0
2016-Jun-26 04:33N 52°58' E 000°17'0 0.0
2016-Jun-26 03:33N 52°58' E 000°17'0 0.0
2016-Jun-26 02:33N 52°58' E 000°17'0 0.0
2016-Jun-26 01:31N 52°58' E 000°17'0 0.0
2016-Jun-26 00:33N 52°58' E 000°17'0 0.0
2016-Jun-25 23:30N 52°58' E 000°17'0 0.0
2016-Jun-25 22:33N 52°58' E 000°17'1 1.0
2016-Jun-25 21:33N 52°58' E 000°19'1110.6
2016-Jun-25 20:33N 53°06' E 000°32'8 8.0
2016-Jun-25 19:33N 53°08' E 000°45'9 8.6
2016-Jun-25 18:32N 53°05' E 000°58'9 9.3
2016-Jun-25 17:33N 53°00' E 001°11'1010.2
2016-Jun-25 16:33N 52°55' E 001°26'1110.8
2016-Jun-25 15:33N 52°48' E 001°39'96 8.4
2016-Jun-25 04:08N 51°36' E 003°23'6 9.6
2016-Jun-25 03:33N 51°31' E 003°27'7 7.1
2016-Jun-25 02:33N 51°26' E 003°35'7 6.8
2016-Jun-25 01:33N 51°22' E 003°44'4 3.9
2016-Jun-25 00:33N 51°20' E 003°49'1 0.8
2016-Jun-24 23:34N 51°19' E 003°50'0 0.4
2016-Jun-24 22:28N 51°19' E 003°50'0 0.0
2016-Jun-24 21:28N 51°19' E 003°50'0 0.0
2016-Jun-24 20:31N 51°19' E 003°50'0 0.0
2016-Jun-24 19:31N 51°19' E 003°50'0 0.0
2016-Jun-24 18:31N 51°19' E 003°50'0 0.0
2016-Jun-24 17:31N 51°19' E 003°50'0 0.0
2016-Jun-24 16:31N 51°19' E 003°50'0 0.0
2016-Jun-24 15:31N 51°19' E 003°50'0 0.0
2016-Jun-24 14:31N 51°19' E 003°50'0 0.0
2016-Jun-24 13:31N 51°19' E 003°50'0 0.0
2016-Jun-24 12:31N 51°19' E 003°50'0 0.0
2016-Jun-24 11:31N 51°19' E 003°50'0 0.0
2016-Jun-24 10:22N 51°19' E 003°50'0 0.0
2016-Jun-24 09:31N 51°19' E 003°50'0 0.0
2016-Jun-24 08:31N 51°19' E 003°50'0 0.0
2016-Jun-24 07:28N 51°19' E 003°50'0 0.0
2016-Jun-24 04:28N 51°19' E 003°50'0 0.0
2016-Jun-24 03:28N 51°19' E 003°50'0 0.0
2016-Jun-24 02:25N 51°19' E 003°50'0 0.0
2016-Jun-24 01:31N 51°19' E 003°50'0 0.0
2016-Jun-24 00:31N 51°19' E 003°50'0 0.0
2016-Jun-23 23:33N 51°19' E 003°50'1 1.2
2016-Jun-23 22:33N 51°20' E 003°49'1 0.7
2016-Jun-23 21:33N 51°20' E 003°49'9 8.8
2016-Jun-23 20:33N 51°26' E 003°59'5 4.6
2016-Jun-23 19:33N 51°31' E 004°01'7 7.0
2016-Jun-23 18:32N 51°38' E 004°04'4 4.4
2016-Jun-23 17:33N 51°40' E 004°10'9 7.5
2016-Jun-23 16:21N 51°41' E 004°25'1 0.7
2016-Jun-23 15:33N 51°42' E 004°25'7 6.6
2016-Jun-23 14:33N 51°42' E 004°36'0 0.2
2016-Jun-23 12:32N 51°42' E 004°35'0 0.0
2016-Jun-23 11:14N 51°42' E 004°35'0 0.0
2016-Jun-23 10:32N 51°42' E 004°35'0 0.0
2016-Jun-23 09:32N 51°42' E 004°35'0 0.0
2016-Jun-23 07:20N 51°42' E 004°35'0 0.0
2016-Jun-23 05:26N 51°42' E 004°35'0 0.0
2016-Jun-23 04:29N 51°42' E 004°35'0 0.0
2016-Jun-23 03:26N 51°42' E 004°35'0 0.0
2016-Jun-23 02:32N 51°42' E 004°35'0 0.0
2016-Jun-23 01:26N 51°42' E 004°35'0 0.0
2016-Jun-23 00:20N 51°42' E 004°35'0 0.0
2016-Jun-22 23:32N 51°42' E 004°35'0 0.0
2016-Jun-22 22:26N 51°42' E 004°35'0 0.0
2016-Jun-22 21:32N 51°42' E 004°35'0 0.0
2016-Jun-22 20:20N 51°42' E 004°35'0 0.0
2016-Jun-22 19:32N 51°42' E 004°35'0 0.0
2016-Jun-22 18:29N 51°42' E 004°35'0 0.0
2016-Jun-22 17:26N 51°42' E 004°35'0 0.0
2016-Jun-22 16:29N 51°42' E 004°35'6 6.6
2016-Jun-22 15:33N 51°48' E 004°37'8 8.3
2016-Jun-22 14:33N 51°51' E 004°25'7 7.4
2016-Jun-22 13:33N 51°55' E 004°15'7 7.0
2016-Jun-22 12:33N 51°59' E 004°06'6 6.3
2016-Jun-22 11:33N 51°59' E 003°56'44 7.3
2016-Jun-22 05:32N 51°36' E 002°55'9 9.0
2016-Jun-22 04:33N 51°31' E 002°43'10 9.7
2016-Jun-22 03:33N 51°25' E 002°31'1010.2
2016-Jun-22 02:33N 51°18' E 002°18'1010.5
2016-Jun-22 01:33N 51°13' E 002°04'1111.2
2016-Jun-22 00:33N 51°07' E 001°49'1211.6
2016-Jun-21 23:33N 50°58' E 001°37'1110.6
2016-Jun-21 22:28N 50°49' E 001°26'50 8.0
2016-Jun-21 16:14N 50°25' E 000°17'6 7.1
2016-Jun-21 15:24N 50°23' E 000°08'6 7.2
2016-Jun-21 14:33N 50°22' W 000°02'7 7.3
2016-Jun-21 13:33N 50°21' W 000°13'7 7.4
2016-Jun-21 12:33N 50°21' W 000°25'11 8.5
2016-Jun-21 11:13N 50°20' W 000°42'710.3
2016-Jun-21 10:32N 50°19' W 000°53'73 9.9
2016-Jun-21 03:12N 50°14' W 002°47'5 6.7
2016-Jun-21 02:31N 50°13' W 002°54'6 6.8
2016-Jun-21 01:33N 50°13' W 003°04'7 7.2
2016-Jun-21 00:33N 50°13' W 003°15'8 7.8
2016-Jun-20 23:33N 50°12' W 003°28'8 7.7
2016-Jun-20 22:33N 50°11' W 003°40'11 7.6
2016-Jun-20 21:09N 50°12' W 003°56'5 8.4
2016-Jun-20 20:33N 50°13' W 004°04'11 8.8
2016-Jun-20 19:16N 50°16' W 004°21'7 8.9
2016-Jun-20 18:32N 50°18' W 004°31'6 5.6
2016-Jun-20 17:32N 50°21' W 004°38'0 0.0
2016-Jun-20 16:23N 50°21' W 004°38'0 0.0
2016-Jun-20 15:29N 50°21' W 004°38'0 0.0
2016-Jun-20 14:32N 50°21' W 004°38'0 0.0
2016-Jun-20 13:23N 50°21' W 004°38'  
Track history (hours):
 
Tides and Currents Weather Stations Pressure Air Temp Water Temp Dewpoint Dewpoint Depression Visibility Wind Speed Wind Dir Waves Ship Positions

Iberica Hav

Last reported at 2016-Jun-30 11:33 UTC. Time now 2016-Jun-30 12:26 UTC.
Position N 51°58' E 004°09'.

Length 88 m; draft 3.8 m.

Type: Cargo ship. MMSI: 311034400.

Date/timePositionNaut miles runAvg speedWind from/ knotsBaromVisibWave heightAir tempDewpointWater temp
2016-Jun-30 11:33N 51°58' E 004°09'8 8.2
2016-Jun-30 10:33N 51°53' E 004°20'7 6.5
2016-Jun-30 09:33N 51°50' E 004°29'8 7.5
2016-Jun-30 08:33N 51°45' E 004°38'3 3.2
2016-Jun-30 07:31N 51°42' E 004°37'0 0.0
2016-Jun-30 04:31N 51°42' E 004°37'0 0.0
2016-Jun-30 03:31N 51°42' E 004°37'0 0.0
2016-Jun-30 02:31N 51°42' E 004°37'0 0.0
2016-Jun-30 01:31N 51°42' E 004°37'0 0.0
2016-Jun-30 00:31N 51°42' E 004°37'0 0.0
2016-Jun-29 23:31N 51°42' E 004°37'0 0.0
2016-Jun-29 22:31N 51°42' E 004°37'0 0.0
2016-Jun-29 21:31N 51°42' E 004°37'0 0.0
2016-Jun-29 20:31N 51°42' E 004°37'0 0.0
2016-Jun-29 19:31N 51°42' E 004°37'0 0.0
2016-Jun-29 18:31N 51°42' E 004°37'0 0.0
2016-Jun-29 17:31N 51°42' E 004°37'0 0.0
2016-Jun-29 16:31N 51°42' E 004°37'0 0.0
2016-Jun-29 15:28N 51°42' E 004°37'0 0.0
2016-Jun-29 14:31N 51°42' E 004°37'0 0.0
2016-Jun-29 13:31N 51°42' E 004°37'0 0.0
2016-Jun-29 12:16N 51°42' E 004°37'0 0.0
2016-Jun-29 11:31N 51°42' E 004°37'7 7.0
2016-Jun-29 10:33N 51°48' E 004°36'1110.5
2016-Jun-29 09:33N 51°52' E 004°20'1111.3
2016-Jun-29 08:34N 51°59' E 004°05'9 9.3
2016-Jun-29 07:33N 52°01' E 003°51'94 7.8
2016-Jun-28 19:28N 52°50' E 001°38'6 6.3
2016-Jun-28 18:33N 52°53' E 001°30'6 6.1
2016-Jun-28 17:33N 52°57' E 001°22'9 6.8
2016-Jun-28 16:16N 53°01' E 001°09'6 7.9
2016-Jun-28 15:32N 53°04' E 001°01'9 9.2
2016-Jun-28 14:32N 53°08' E 000°47'8 8.6
2016-Jun-28 13:33N 53°07' E 000°33'1010.0
2016-Jun-28 12:33N 52°60' E 000°21'9 9.3
2016-Jun-28 11:33N 52°56' E 000°06'5 4.5
2016-Jun-28 10:28N 52°58' W 000°01'0 0.0
2016-Jun-28 09:31N 52°58' W 000°01'0 0.0
2016-Jun-28 08:28N 52°58' W 000°01'0 0.0
2016-Jun-28 07:31N 52°58' W 000°01'0 0.0
2016-Jun-28 06:28N 52°58' W 000°01'0 0.0
2016-Jun-28 04:25N 52°58' W 000°01'0 0.0
2016-Jun-28 03:31N 52°58' W 000°01'0 0.0
2016-Jun-28 02:31N 52°58' W 000°01'0 0.0
2016-Jun-28 01:28N 52°58' W 000°01'0 0.0
2016-Jun-28 00:25N 52°58' W 000°01'0 0.0
2016-Jun-27 23:25N 52°58' W 000°01'0 0.0
2016-Jun-27 22:28N 52°58' W 000°01'0 0.0
2016-Jun-27 21:13N 52°58' W 000°01'0 0.0
2016-Jun-27 20:16N 52°58' W 000°01'0 0.0
2016-Jun-27 19:31N 52°58' W 000°01'0 0.0
2016-Jun-27 18:31N 52°58' W 000°01'0 0.0
2016-Jun-27 17:31N 52°58' W 000°01'0 0.0
2016-Jun-27 16:28N 52°58' W 000°01'0 0.0
2016-Jun-27 15:31N 52°58' W 000°01'0 0.0
2016-Jun-27 14:31N 52°58' W 000°01'0 0.0
2016-Jun-27 13:22N 52°58' W 000°01'0 0.0
2016-Jun-27 12:28N 52°58' W 000°01'0 0.0
2016-Jun-27 11:28N 52°58' W 000°01'0 0.0
2016-Jun-27 10:31N 52°58' W 000°01'0 0.0
2016-Jun-27 09:31N 52°58' W 000°01'0 0.0
2016-Jun-27 08:31N 52°58' W 000°01'0 0.0
2016-Jun-27 06:31N 52°58' W 000°01'0 0.0
2016-Jun-27 05:31N 52°58' W 000°01'0 0.0
2016-Jun-27 04:28N 52°58' W 000°01'0 0.0
2016-Jun-27 03:31N 52°58' W 000°01'0 0.0
2016-Jun-27 02:28N 52°58' W 000°01'0 0.0
2016-Jun-27 01:31N 52°58' W 000°01'0 0.0
2016-Jun-27 00:28N 52°58' W 000°01'0 0.0
2016-Jun-26 23:28N 52°58' W 000°01'0 0.0
2016-Jun-26 22:25N 52°58' W 000°01'0 0.0
2016-Jun-26 21:31N 52°58' W 000°01'0 0.0
2016-Jun-26 20:31N 52°58' W 000°01'0 0.0
2016-Jun-26 19:28N 52°58' W 000°01'0 0.0
2016-Jun-26 18:28N 52°58' W 000°01'0 0.0
2016-Jun-26 17:25N 52°58' W 000°01'0 0.0
2016-Jun-26 16:31N 52°58' W 000°01'0 0.0
2016-Jun-26 15:31N 52°58' W 000°01'0 0.0
2016-Jun-26 14:28N 52°58' W 000°01'0 0.0
2016-Jun-26 13:28N 52°58' W 000°01'0 0.0
2016-Jun-26 12:28N 52°58' W 000°01'0 0.0
2016-Jun-26 11:25N 52°58' W 000°01'0 0.0
2016-Jun-26 10:28N 52°58' W 000°01'0 0.1
2016-Jun-26 09:33N 52°58' W 000°01'4 4.4
2016-Jun-26 08:33N 52°56' E 000°05'7 7.0
2016-Jun-26 07:33N 52°58' E 000°17'0 0.2
2016-Jun-26 06:33N 52°58' E 000°17'0 0.0
2016-Jun-26 05:33N 52°58' E 000°17'0 0.0
2016-Jun-26 04:33N 52°58' E 000°17'0 0.0
2016-Jun-26 03:33N 52°58' E 000°17'0 0.0
2016-Jun-26 02:33N 52°58' E 000°17'0 0.0
2016-Jun-26 01:31N 52°58' E 000°17'0 0.0
2016-Jun-26 00:33N 52°58' E 000°17'0 0.0
2016-Jun-25 23:30N 52°58' E 000°17'0 0.0
2016-Jun-25 22:33N 52°58' E 000°17'1 1.0
2016-Jun-25 21:33N 52°58' E 000°19'1110.6
2016-Jun-25 20:33N 53°06' E 000°32'8 8.0
2016-Jun-25 19:33N 53°08' E 000°45'9 8.6
2016-Jun-25 18:32N 53°05' E 000°58'9 9.3
2016-Jun-25 17:33N 53°00' E 001°11'1010.2
2016-Jun-25 16:33N 52°55' E 001°26'1110.8
2016-Jun-25 15:33N 52°48' E 001°39'96 8.4
2016-Jun-25 04:08N 51°36' E 003°23'6 9.6
2016-Jun-25 03:33N 51°31' E 003°27'7 7.1
2016-Jun-25 02:33N 51°26' E 003°35'7 6.8
2016-Jun-25 01:33N 51°22' E 003°44'4 3.9
2016-Jun-25 00:33N 51°20' E 003°49'1 0.8
2016-Jun-24 23:34N 51°19' E 003°50'0 0.4
2016-Jun-24 22:28N 51°19' E 003°50'0 0.0
2016-Jun-24 21:28N 51°19' E 003°50'0 0.0
2016-Jun-24 20:31N 51°19' E 003°50'0 0.0
2016-Jun-24 19:31N 51°19' E 003°50'0 0.0
2016-Jun-24 18:31N 51°19' E 003°50'0 0.0
2016-Jun-24 17:31N 51°19' E 003°50'0 0.0
2016-Jun-24 16:31N 51°19' E 003°50'0 0.0
2016-Jun-24 15:31N 51°19' E 003°50'0 0.0
2016-Jun-24 14:31N 51°19' E 003°50'0 0.0
2016-Jun-24 13:31N 51°19' E 003°50'0 0.0
2016-Jun-24 12:31N 51°19' E 003°50'0 0.0
2016-Jun-24 11:31N 51°19' E 003°50'0 0.0
2016-Jun-24 10:22N 51°19' E 003°50'0 0.0
2016-Jun-24 09:31N 51°19' E 003°50'0 0.0
2016-Jun-24 08:31N 51°19' E 003°50'0 0.0
2016-Jun-24 07:28N 51°19' E 003°50'0 0.0
2016-Jun-24 04:28N 51°19' E 003°50'0 0.0
2016-Jun-24 03:28N 51°19' E 003°50'0 0.0
2016-Jun-24 02:25N 51°19' E 003°50'0 0.0
2016-Jun-24 01:31N 51°19' E 003°50'0 0.0
2016-Jun-24 00:31N 51°19' E 003°50'0 0.0
2016-Jun-23 23:33N 51°19' E 003°50'1 1.2
2016-Jun-23 22:33N 51°20' E 003°49'1 0.7
2016-Jun-23 21:33N 51°20' E 003°49'9 8.8
2016-Jun-23 20:33N 51°26' E 003°59'5 4.6
2016-Jun-23 19:33N 51°31' E 004°01'7 7.0
2016-Jun-23 18:32N 51°38' E 004°04'4 4.4
2016-Jun-23 17:33N 51°40' E 004°10'9 7.5
2016-Jun-23 16:21N 51°41' E 004°25'1 0.7
2016-Jun-23 15:33N 51°42' E 004°25'7 6.6
2016-Jun-23 14:33N 51°42' E 004°36'0 0.2
2016-Jun-23 12:32N 51°42' E 004°35'0 0.0
2016-Jun-23 11:14N 51°42' E 004°35'0 0.0
2016-Jun-23 10:32N 51°42' E 004°35'0 0.0
2016-Jun-23 09:32N 51°42' E 004°35'0 0.0
2016-Jun-23 07:20N 51°42' E 004°35'0 0.0
2016-Jun-23 05:26N 51°42' E 004°35'0 0.0
2016-Jun-23 04:29N 51°42' E 004°35'0 0.0
2016-Jun-23 03:26N 51°42' E 004°35'0 0.0
2016-Jun-23 02:32N 51°42' E 004°35'0 0.0
2016-Jun-23 01:26N 51°42' E 004°35'0 0.0
2016-Jun-23 00:20N 51°42' E 004°35'0 0.0
2016-Jun-22 23:32N 51°42' E 004°35'0 0.0
2016-Jun-22 22:26N 51°42' E 004°35'0 0.0
2016-Jun-22 21:32N 51°42' E 004°35'0 0.0
2016-Jun-22 20:20N 51°42' E 004°35'0 0.0
2016-Jun-22 19:32N 51°42' E 004°35'0 0.0
2016-Jun-22 18:29N 51°42' E 004°35'0 0.0
2016-Jun-22 17:26N 51°42' E 004°35'0 0.0
2016-Jun-22 16:29N 51°42' E 004°35'6 6.6
2016-Jun-22 15:33N 51°48' E 004°37'8 8.3
2016-Jun-22 14:33N 51°51' E 004°25'7 7.4
2016-Jun-22 13:33N 51°55' E 004°15'7 7.0
2016-Jun-22 12:33N 51°59' E 004°06'6 6.3
2016-Jun-22 11:33N 51°59' E 003°56'44 7.3
2016-Jun-22 05:32N 51°36' E 002°55'9 9.0
2016-Jun-22 04:33N 51°31' E 002°43'10 9.7
2016-Jun-22 03:33N 51°25' E 002°31'1010.2
2016-Jun-22 02:33N 51°18' E 002°18'1010.5
2016-Jun-22 01:33N 51°13' E 002°04'1111.2
2016-Jun-22 00:33N 51°07' E 001°49'1211.6
2016-Jun-21 23:33N 50°58' E 001°37'1110.6
2016-Jun-21 22:28N 50°49' E 001°26'50 8.0
2016-Jun-21 16:14N 50°25' E 000°17'6 7.1
2016-Jun-21 15:24N 50°23' E 000°08'6 7.2
2016-Jun-21 14:33N 50°22' W 000°02'7 7.3
2016-Jun-21 13:33N 50°21' W 000°13'7 7.4
2016-Jun-21 12:33N 50°21' W 000°25'11 8.5
2016-Jun-21 11:13N 50°20' W 000°42'710.3
2016-Jun-21 10:32N 50°19' W 000°53'73 9.9
2016-Jun-21 03:12N 50°14' W 002°47'5 6.7
2016-Jun-21 02:31N 50°13' W 002°54'6 6.8
2016-Jun-21 01:33N 50°13' W 003°04'7 7.2
2016-Jun-21 00:33N 50°13' W 003°15'8 7.8
2016-Jun-20 23:33N 50°12' W 003°28'8 7.7
2016-Jun-20 22:33N 50°11' W 003°40'11 7.6
2016-Jun-20 21:09N 50°12' W 003°56'5 8.4
2016-Jun-20 20:33N 50°13' W 004°04'11 8.8
2016-Jun-20 19:16N 50°16' W 004°21'7 8.9
2016-Jun-20 18:32N 50°18' W 004°31'6 5.6
2016-Jun-20 17:32N 50°21' W 004°38'0 0.0
2016-Jun-20 16:23N 50°21' W 004°38'0 0.0
2016-Jun-20 15:29N 50°21' W 004°38'0 0.0
2016-Jun-20 14:32N 50°21' W 004°38'0 0.0
2016-Jun-20 13:23N 50°21' W 004°38'  

Dump ship's entire track history